createdAt,value
2022-11-08T00:09:37.675Z,14.50
2022-11-08T00:14:36.370Z,16.02
2022-11-08T00:19:36.272Z,15.25
2022-11-08T00:24:34.753Z,13.30
2022-11-08T00:29:33.909Z,11.73
2022-11-08T00:34:31.229Z,13.38
2022-11-08T00:39:28.341Z,15.95
2022-11-08T00:44:26.351Z,16.38
2022-11-08T00:49:23.609Z,17.40
2022-11-08T00:54:21.171Z,15.73
2022-11-08T00:59:20.080Z,15.82
2022-11-08T01:04:19.117Z,15.07
2022-11-08T01:09:19.215Z,13.18
2022-11-08T01:14:16.278Z,12.80
2022-11-08T01:19:13.365Z,12.25
2022-11-08T01:24:11.335Z,12.85
2022-11-08T01:29:08.310Z,11.57
2022-11-08T01:34:05.440Z,11.05
2022-11-08T01:39:02.677Z,10.90
2022-11-08T01:44:00.457Z,10.57
2022-11-08T01:49:06.566Z,10.73
2022-11-08T01:54:08.037Z,10.45
2022-11-08T01:59:08.006Z,10.43
2022-11-08T02:04:05.710Z,9.00
2022-11-08T02:09:06.531Z,9.18
2022-11-08T02:14:06.232Z,10.30
2022-11-08T02:19:05.239Z,9.13
2022-11-08T02:24:08.095Z,10.13
2022-11-08T02:29:25.747Z,8.77
2022-11-08T02:34:27.693Z,10.80
2022-11-08T02:39:25.458Z,10.25
2022-11-08T02:44:22.330Z,11.07
2022-11-08T02:49:19.299Z,11.55
2022-11-08T02:54:16.188Z,11.65
2022-11-08T02:59:13.984Z,11.35
2022-11-08T03:04:11.260Z,12.60
2022-11-08T03:09:08.448Z,12.63
2022-11-08T03:14:05.394Z,11.52
2022-11-08T03:19:03.194Z,13.50
2022-11-08T03:24:00.156Z,12.60
2022-11-08T03:28:57.260Z,13.07
2022-11-08T03:33:54.174Z,11.60
2022-11-08T03:38:51.782Z,12.45
2022-11-08T03:43:48.748Z,13.52
2022-11-08T03:48:45.852Z,13.27
2022-11-08T03:53:43.378Z,11.82
2022-11-08T03:58:41.118Z,11.50
2022-11-08T04:03:37.981Z,12.10
2022-11-08T04:08:34.948Z,12.10
2022-11-08T04:13:49.810Z,13.77
2022-11-08T04:19:05.321Z,13.83
2022-11-08T04:24:02.412Z,12.73
2022-11-08T04:29:01.705Z,13.32
2022-11-08T04:33:59.497Z,12.82
2022-11-08T04:38:56.429Z,11.48
2022-11-08T04:43:56.314Z,11.90
2022-11-08T04:48:55.497Z,12.15
2022-11-08T04:53:54.883Z,12.75
2022-11-08T04:59:08.267Z,12.27
2022-11-08T05:04:08.428Z,11.63
2022-11-08T05:09:06.352Z,13.63
2022-11-08T05:14:03.928Z,12.15
2022-11-08T05:19:11.952Z,12.48
2022-11-08T05:24:13.900Z,12.65
2022-11-08T05:29:15.695Z,12.65
2022-11-08T05:34:15.760Z,11.98
2022-11-08T05:39:13.412Z,13.25
2022-11-08T05:44:10.493Z,13.00
2022-11-08T05:49:07.639Z,16.10
2022-11-08T05:54:05.033Z,14.98
2022-11-08T05:59:05.786Z,14.05
2022-11-08T06:04:02.853Z,18.13
2022-11-08T06:09:00.042Z,23.08
2022-11-08T06:13:57.986Z,14.80
2022-11-08T06:18:59.613Z,13.95
2022-11-08T06:23:56.661Z,12.82
2022-11-08T06:28:53.739Z,14.20
2022-11-08T06:33:50.902Z,13.75
2022-11-08T06:38:53.606Z,12.65
2022-11-08T06:43:50.771Z,11.43
2022-11-08T06:48:47.927Z,10.68
2022-11-08T06:53:45.656Z,10.60
2022-11-08T06:58:43.831Z,10.45
2022-11-08T07:03:40.957Z,12.05
2022-11-08T07:08:38.242Z,12.27
2022-11-08T07:13:35.265Z,11.25
2022-11-08T07:18:34.259Z,10.40
2022-11-08T07:23:32.037Z,12.10
2022-11-08T07:28:29.263Z,13.82
2022-11-08T07:33:26.961Z,12.80
2022-11-08T07:38:25.745Z,11.73
2022-11-08T07:43:22.743Z,13.18
2022-11-08T07:48:21.017Z,11.63
2022-11-08T07:53:18.913Z,11.35
2022-11-08T07:58:17.162Z,11.60
2022-11-08T08:03:15.051Z,11.82
2022-11-08T08:08:13.597Z,11.13
2022-11-08T08:13:10.765Z,10.63
2022-11-08T08:18:09.378Z,10.00
2022-11-08T08:23:06.877Z,9.85
2022-11-08T08:28:05.368Z,9.68
2022-11-08T08:38:22.783Z,10.23
2022-11-08T08:43:20.838Z,9.50
2022-11-08T08:48:18.113Z,8.65
2022-11-08T08:53:15.501Z,9.38
2022-11-08T08:58:16.801Z,8.85
2022-11-08T09:03:14.772Z,9.43
2022-11-08T09:08:14.763Z,9.77
2022-11-08T09:13:17.494Z,8.75
2022-11-08T09:18:18.332Z,8.82
2022-11-08T09:23:17.282Z,8.77
2022-11-08T09:28:15.983Z,7.68
2022-11-08T09:33:13.273Z,7.82
2022-11-08T09:38:11.127Z,9.45
2022-11-08T09:43:28.997Z,8.35
2022-11-08T09:48:32.509Z,8.80
2022-11-08T09:53:39.409Z,8.48
2022-11-08T09:58:41.198Z,8.93
2022-11-08T10:03:38.564Z,9.05
2022-11-08T10:08:43.651Z,9.07
2022-11-08T10:14:00.487Z,8.93
2022-11-08T10:19:18.653Z,9.32
2022-11-08T10:24:22.456Z,8.68
2022-11-08T10:29:22.750Z,7.22
2022-11-08T10:34:25.837Z,8.02
2022-11-08T10:39:27.416Z,7.75
2022-11-08T10:44:26.629Z,8.75
2022-11-08T10:49:25.886Z,8.68
2022-11-08T10:54:42.609Z,10.07
2022-11-08T10:59:41.217Z,10.20
2022-11-08T11:04:38.367Z,9.15
2022-11-08T11:09:38.344Z,8.10
2022-11-08T11:14:37.095Z,8.55
2022-11-08T11:19:36.480Z,7.55
2022-11-08T11:24:35.564Z,8.60
2022-11-08T11:29:34.903Z,8.25
2022-11-08T11:34:50.521Z,7.38
2022-11-08T11:39:55.346Z,7.82
2022-11-08T11:45:08.396Z,8.13
2022-11-08T11:50:15.800Z,6.65
2022-11-08T11:55:15.315Z,8.63
2022-11-08T12:00:15.261Z,6.55
2022-11-08T12:05:30.334Z,6.50
2022-11-08T12:15:37.567Z,8.30
2022-11-08T12:20:44.229Z,7.70
2022-11-08T12:25:48.296Z,8.20
2022-11-08T12:30:52.861Z,8.93
2022-11-08T12:36:03.503Z,9.13
2022-11-08T12:41:11.730Z,8.30
2022-11-08T12:46:12.604Z,7.45
2022-11-08T12:51:20.301Z,7.55
2022-11-08T12:56:22.670Z,9.30
2022-11-08T13:01:25.610Z,7.20
2022-11-08T13:06:28.809Z,8.07
2022-11-08T13:11:36.929Z,9.02
2022-11-08T13:16:38.614Z,8.63
2022-11-08T13:21:39.891Z,8.57
2022-11-08T13:26:41.443Z,9.32
2022-11-08T13:31:49.433Z,8.70
2022-11-08T13:36:59.377Z,8.25
2022-11-08T13:42:03.080Z,9.85
2022-11-08T13:47:00.145Z,8.55
2022-11-08T13:52:44.082Z,9.00
2022-11-08T13:57:59.091Z,10.18
2022-11-08T14:02:56.108Z,10.27
2022-11-08T14:08:27.724Z,9.93
2022-11-08T14:13:31.364Z,11.23
2022-11-08T14:18:32.496Z,12.32
2022-11-08T14:23:33.050Z,11.52
2022-11-08T14:28:33.246Z,14.95
2022-11-08T14:33:31.789Z,11.48
2022-11-08T14:38:32.779Z,12.80
2022-11-08T14:43:31.163Z,17.45
2022-11-08T14:48:30.247Z,13.05
2022-11-08T14:53:29.197Z,13.32
2022-11-08T14:58:29.707Z,12.80
2022-11-08T15:03:31.041Z,16.38
2022-11-08T15:08:33.915Z,14.07
2022-11-08T15:13:42.805Z,13.25
2022-11-08T15:18:46.034Z,16.27
2022-11-08T15:23:47.841Z,16.85
2022-11-08T15:29:02.970Z,14.90
2022-11-08T15:34:05.304Z,16.05
2022-11-08T15:39:12.248Z,17.67
2022-11-08T15:44:31.245Z,18.10
2022-11-08T15:49:32.945Z,19.20
2022-11-08T15:54:32.754Z,21.85
2022-11-08T15:59:38.187Z,18.83
2022-11-08T16:04:46.723Z,17.60
2022-11-08T16:09:49.953Z,15.85
2022-11-08T16:15:29.417Z,17.48
2022-11-08T16:20:32.350Z,18.63
2022-11-08T16:25:35.668Z,19.35
2022-11-08T16:30:35.223Z,19.70
2022-11-08T16:35:39.905Z,19.63
2022-11-08T16:40:40.967Z,18.77
2022-11-08T16:46:04.186Z,20.48
2022-11-08T16:51:01.068Z,22.42
2022-11-08T16:56:12.069Z,20.38
2022-11-08T17:01:21.660Z,22.00
2022-11-08T17:11:37.751Z,25.50
2022-11-08T17:16:40.405Z,22.08
2022-11-08T17:22:28.395Z,26.58
2022-11-08T17:27:31.651Z,24.42
2022-11-08T17:32:33.067Z,26.13
2022-11-08T17:37:41.406Z,24.10
2022-11-08T17:42:42.134Z,24.80
2022-11-08T17:47:42.658Z,26.30
2022-11-08T17:52:41.322Z,22.77
2022-11-08T17:57:42.271Z,20.73
2022-11-08T18:02:43.133Z,19.23
2022-11-08T18:07:47.260Z,17.00
2022-11-08T18:12:48.938Z,20.42
2022-11-08T18:17:47.339Z,22.08
2022-11-08T18:22:45.854Z,21.90
2022-11-08T18:27:44.319Z,22.63
2022-11-08T18:32:44.449Z,22.50
2022-11-08T18:37:43.460Z,24.05
2022-11-08T18:42:55.912Z,23.33
2022-11-08T18:47:58.607Z,20.45
2022-11-08T18:53:04.124Z,23.08
2022-11-08T18:58:03.204Z,41.78
2022-11-08T19:03:01.588Z,19.73
2022-11-08T19:08:00.696Z,18.90
2022-11-08T19:12:59.413Z,19.20
2022-11-08T19:17:59.398Z,18.83
2022-11-08T19:23:04.691Z,19.30
2022-11-08T19:28:01.999Z,19.13
2022-11-08T19:33:02.564Z,19.67
2022-11-08T19:38:03.973Z,21.63
2022-11-08T19:43:02.068Z,19.20
2022-11-08T19:48:01.638Z,20.00
2022-11-08T19:53:07.615Z,18.52
2022-11-08T19:58:14.204Z,18.77
2022-11-08T20:03:14.200Z,19.75
2022-11-08T20:08:18.004Z,20.20
2022-11-08T20:13:24.265Z,18.83
2022-11-08T20:18:21.775Z,17.02
2022-11-08T20:23:19.948Z,18.25
2022-11-08T20:28:20.632Z,17.42
2022-11-08T20:33:20.984Z,19.98
2022-11-08T20:38:20.417Z,17.42
2022-11-08T20:43:30.137Z,17.50
2022-11-08T20:48:30.428Z,18.25
2022-11-08T20:53:31.595Z,19.48
2022-11-08T20:58:31.935Z,18.02
2022-11-08T21:03:29.720Z,18.17
2022-11-08T21:08:58.597Z,20.73
2022-11-08T21:13:47.099Z,18.58
2022-11-08T21:18:44.255Z,19.45
2022-11-08T21:23:44.876Z,19.90
2022-11-08T21:28:42.410Z,19.63
2022-11-08T21:33:39.811Z,20.45
2022-11-08T21:38:37.563Z,20.33
2022-11-08T21:43:42.327Z,19.70
2022-11-08T21:48:39.616Z,20.93
2022-11-08T21:53:45.170Z,18.52
2022-11-08T21:58:45.902Z,18.50
2022-11-08T22:03:43.087Z,18.98
2022-11-08T22:08:40.983Z,19.33
2022-11-08T22:13:38.006Z,21.77
2022-11-08T22:19:03.604Z,20.35
2022-11-08T22:23:53.234Z,19.98
2022-11-08T22:28:50.650Z,20.60
2022-11-08T22:33:48.703Z,20.25
2022-11-08T22:38:55.378Z,20.38
2022-11-08T22:43:52.981Z,21.63
2022-11-08T22:48:51.120Z,21.42
2022-11-08T22:53:48.161Z,20.40
2022-11-08T22:58:45.613Z,19.42
2022-11-08T23:03:45.842Z,21.17
2022-11-08T23:08:46.325Z,23.25
2022-11-08T23:14:01.529Z,19.73
2022-11-08T23:19:13.625Z,22.60
2022-11-08T23:24:20.514Z,20.50
2022-11-08T23:29:35.921Z,21.80
2022-11-08T23:34:32.984Z,21.17
2022-11-08T23:39:31.069Z,21.08
2022-11-08T23:44:27.740Z,19.30
2022-11-08T23:49:25.098Z,20.35
2022-11-08T23:54:22.626Z,20.83
2022-11-08T23:59:20.342Z,22.63
